20:15
Airports
History
Links
Donate
Help keep this website running!
PayPal
Bitcoin
This page is community maintained. The information is intended for PC simulator navigation or reference.
Always use approved charts for navigation.
SIAP
Ana Paula
Ana Paula (SIAP)
Aceguá, Rio Grande do Sul, Brazil (96445)
(U)
Lat/Lng:31° 44' 4" S / 54° 5' 26" W
-31.734444 / -54.090556
Elevation:584'ft / 178mMSL
ID / ICAO:SIAP
Runways:1
Longest:04-22
Asphalt 821m / 2,693ft
Nearby Weather20:00 GMT 2018-02-23
Nearby weather at SBBG, Comandante Gustavo Kraemer located 23.8 nautical miles from SIAP
Altimeter: 29.97
Visibility: 6.2 statute miles
Wind: 7 knots (from 150°)
Temp: 30°c / 86°f
Humidity: 28.9%

METAR: SBBG 232000Z 15007KT 9999 FEW040 30/10 Q1015

(Powered by phpweather)
Runway 04 / 22
Dimensions:820.8 x 22.9m 2693' x 75'ft
Surface:Asphalt
Runway 04 [A]Runway 22 [B]
Heading:023°TH 203°TH
Lat:
Lng:
31° 44' 16.15"S
54° 5' 32.22"W
31° 43' 51.85"S
54° 5' 19.78"W
User Notes and Comments
31° 44' 4" S / 54° 5' 26" W
Distance To
Airport ID:
Nearby Airports
(U) Comandante Gustavo Kraemer 23.8 NM
SBBG ( WX ) N 356°
4 Aeroclube 28.2 NM
SSCE N 354°
(U) Candiota 28.8 NM
SSIO NE 54°
4 Aeromis 30.8 NM
SJXA N 352°
(C) Vichadero 31.0 NM
SUVO W 265°
4 Refugio 60.6 NM
SSRQ NNW 338°
(C) Dom Pedrito 61.3 NM
SSDP NW 326°
VFR Chart
Flight Planning at SkyVector.com